METAR Data
IDs: Format: Raw Decoded Include TAF

Data at: 0636 UTC 22 Oct 2021

RJFF 220600Z 31013KT 280V340 9999 FEW035 BKN045 20/08 Q1016 TEMPO 31016G27KT